createdAt,value
2023-05-06T00:03:09.979Z,90.20
2023-05-06T00:06:52.791Z,90.20
2023-05-06T00:10:34.813Z,90.20
2023-05-06T00:14:17.180Z,90.20
2023-05-06T00:17:58.929Z,90.20
2023-05-06T00:21:40.781Z,90.20
2023-05-06T00:25:22.587Z,90.20
2023-05-06T00:29:04.321Z,90.20
2023-05-06T00:32:46.097Z,90.20
2023-05-06T00:36:27.864Z,90.10
2023-05-06T00:40:10.554Z,90.20
2023-05-06T00:43:52.249Z,90.20
2023-05-06T00:47:34.038Z,90.10
2023-05-06T00:51:15.998Z,90.10
2023-05-06T00:54:57.788Z,90.00
2023-05-06T00:58:39.522Z,89.90
2023-05-06T01:02:21.349Z,89.70
2023-05-06T01:06:03.084Z,89.80
2023-05-06T01:09:59.130Z,89.90
2023-05-06T01:13:46.253Z,90.40
2023-05-06T01:17:29.542Z,90.30
2023-05-06T01:21:12.685Z,90.00
2023-05-06T01:24:54.656Z,90.00
2023-05-06T01:28:36.356Z,90.10
2023-05-06T01:32:52.224Z,90.30
2023-05-06T01:36:53.711Z,91.00
2023-05-06T01:40:36.513Z,90.30
2023-05-06T01:44:22.075Z,90.50
2023-05-06T01:48:04.427Z,90.80
2023-05-06T01:51:50.821Z,90.80
2023-05-06T01:55:32.667Z,91.10
2023-05-06T01:59:15.688Z,90.90
2023-05-06T02:02:57.506Z,90.90
2023-05-06T02:06:39.374Z,90.90
2023-05-06T02:10:21.194Z,90.90
2023-05-06T02:14:03.085Z,91.00
2023-05-06T02:17:44.844Z,91.10
2023-05-06T02:21:27.817Z,91.20
2023-05-06T02:25:09.826Z,91.20
2023-05-06T02:28:51.733Z,91.30
2023-05-06T02:32:33.561Z,90.90
2023-05-06T02:36:15.258Z,91.00
2023-05-06T02:39:57.029Z,91.10
2023-05-06T02:43:38.747Z,91.10
2023-05-06T02:47:20.587Z,91.10
2023-05-06T02:51:02.392Z,91.10
2023-05-06T02:54:44.157Z,91.10
2023-05-06T02:58:26.258Z,91.20
2023-05-06T03:02:08.039Z,91.20
2023-05-06T03:05:49.749Z,91.30
2023-05-06T03:09:31.456Z,91.40
2023-05-06T03:13:13.301Z,91.40
2023-05-06T03:16:55.308Z,91.50
2023-05-06T03:20:37.124Z,91.60
2023-05-06T03:24:18.987Z,91.70
2023-05-06T03:28:00.888Z,91.70
2023-05-06T03:31:42.727Z,91.70
2023-05-06T03:35:24.462Z,91.80
2023-05-06T03:39:06.386Z,91.90
2023-05-06T03:42:48.156Z,92.00
2023-05-06T03:46:29.879Z,92.10
2023-05-06T03:50:11.728Z,92.20
2023-05-06T03:53:54.840Z,92.30
2023-05-06T03:57:36.756Z,92.40
2023-05-06T04:01:18.464Z,92.50
2023-05-06T04:05:00.198Z,92.60
2023-05-06T04:08:41.971Z,92.70
2023-05-06T04:12:23.681Z,92.80
2023-05-06T04:16:05.732Z,92.90
2023-05-06T04:19:47.556Z,93.00
2023-05-06T04:23:29.299Z,93.10
2023-05-06T04:27:11.251Z,93.20
2023-05-06T04:30:53.015Z,93.20
2023-05-06T04:34:36.183Z,93.30
2023-05-06T04:38:17.959Z,93.30
2023-05-06T04:41:59.685Z,93.40
2023-05-06T04:45:49.692Z,93.50
2023-05-06T04:49:31.727Z,93.80
2023-05-06T04:53:14.054Z,93.50
2023-05-06T04:56:56.054Z,93.60
2023-05-06T05:00:37.793Z,93.60
2023-05-06T05:04:19.529Z,93.70
2023-05-06T05:08:01.318Z,93.70
2023-05-06T05:11:43.073Z,93.70
2023-05-06T05:15:24.846Z,93.70
2023-05-06T05:19:09.112Z,93.80
2023-05-06T05:22:51.227Z,93.80
2023-05-06T05:26:32.929Z,93.80
2023-05-06T05:30:14.789Z,93.90
2023-05-06T05:33:56.794Z,93.90
2023-05-06T05:37:38.591Z,93.80
2023-05-06T05:41:20.386Z,93.80
2023-05-06T05:45:02.139Z,93.80
2023-05-06T05:48:43.866Z,93.80
2023-05-06T05:52:25.638Z,93.80
2023-05-06T05:56:07.575Z,93.80
2023-05-06T05:59:49.403Z,93.90
2023-05-06T06:03:31.259Z,93.90
2023-05-06T06:07:13.131Z,94.00
2023-05-06T06:10:54.882Z,94.00
2023-05-06T06:14:36.720Z,94.00
2023-05-06T06:18:18.641Z,94.10
2023-05-06T06:22:00.481Z,94.10
2023-05-06T06:25:42.250Z,94.10
2023-05-06T06:29:24.030Z,94.10
2023-05-06T06:33:05.800Z,94.10
2023-05-06T06:36:47.622Z,94.10
2023-05-06T06:40:29.533Z,94.00
2023-05-06T06:44:11.359Z,94.10
2023-05-06T06:47:53.113Z,94.10
2023-05-06T06:51:34.864Z,94.10
2023-05-06T06:55:16.674Z,94.10
2023-05-06T06:58:58.356Z,94.10
2023-05-06T07:02:40.212Z,94.10
2023-05-06T07:06:21.968Z,94.20
2023-05-06T07:10:03.912Z,94.20
2023-05-06T07:13:45.731Z,94.30
2023-05-06T07:17:27.415Z,94.40
2023-05-06T07:21:09.144Z,94.40
2023-05-06T07:24:51.315Z,94.50
2023-05-06T07:28:33.288Z,94.60
2023-05-06T07:32:15.132Z,94.70
2023-05-06T07:35:57.077Z,94.60
2023-05-06T07:39:38.841Z,94.60
2023-05-06T07:43:22.264Z,94.70
2023-05-06T07:47:04.214Z,94.80
2023-05-06T07:50:48.694Z,94.70
2023-05-06T07:54:31.731Z,95.00
2023-05-06T07:58:13.755Z,94.90
2023-05-06T08:01:55.553Z,95.00
2023-05-06T08:05:37.544Z,95.10
2023-05-06T08:09:23.003Z,95.20
2023-05-06T08:13:05.069Z,95.20
2023-05-06T08:16:47.073Z,95.30
2023-05-06T08:20:28.848Z,95.20
2023-05-06T08:24:11.052Z,95.30
2023-05-06T08:27:52.749Z,95.30
2023-05-06T08:31:34.572Z,95.30
2023-05-06T08:35:16.403Z,95.40
2023-05-06T08:38:58.286Z,95.40
2023-05-06T08:42:40.120Z,95.40
2023-05-06T08:46:22.841Z,95.50
2023-05-06T08:50:05.225Z,95.60
2023-05-06T08:53:52.001Z,95.60
2023-05-06T08:57:34.507Z,95.90
2023-05-06T09:01:16.446Z,95.70
2023-05-06T09:04:59.657Z,95.60
2023-05-06T09:08:41.356Z,95.70
2023-05-06T09:12:24.865Z,95.60
2023-05-06T09:16:06.929Z,95.60
2023-05-06T09:19:48.709Z,95.60
2023-05-06T09:23:30.949Z,95.70
2023-05-06T09:27:15.079Z,95.70
2023-05-06T09:30:57.170Z,95.80
2023-05-06T09:34:42.020Z,95.80
2023-05-06T09:38:24.142Z,95.90
2023-05-06T09:42:06.407Z,96.00
2023-05-06T09:45:48.832Z,96.00
2023-05-06T09:49:30.596Z,96.30
2023-05-06T09:53:13.624Z,96.10
2023-05-06T09:56:55.978Z,96.20
2023-05-06T10:00:38.156Z,96.30
2023-05-06T10:04:26.363Z,96.10
2023-05-06T10:08:09.192Z,96.40
2023-05-06T10:11:53.516Z,96.30
2023-05-06T10:15:35.305Z,96.30
2023-05-06T10:19:23.860Z,96.30
2023-05-06T10:23:24.528Z,96.50
2023-05-06T10:27:06.618Z,96.30
2023-05-06T10:30:50.635Z,96.20
2023-05-06T10:34:37.854Z,96.30
2023-05-06T10:38:41.042Z,96.50
2023-05-06T10:42:33.340Z,96.80
2023-05-06T10:46:18.606Z,96.70
2023-05-06T10:50:23.097Z,96.60
2023-05-06T10:54:07.694Z,96.80
2023-05-06T10:57:53.660Z,96.60
2023-05-06T11:01:40.485Z,96.40
2023-05-06T11:05:23.053Z,96.40
2023-05-06T11:09:06.311Z,96.50
2023-05-06T11:12:50.169Z,96.50
2023-05-06T11:16:49.691Z,96.60
2023-05-06T11:20:31.651Z,97.00
2023-05-06T11:24:14.096Z,96.50
2023-05-06T11:27:56.389Z,96.70
2023-05-06T11:31:40.375Z,96.80
2023-05-06T11:35:22.999Z,96.80
2023-05-06T11:39:10.574Z,96.90
2023-05-06T11:42:52.394Z,97.00
2023-05-06T11:46:34.326Z,96.80
2023-05-06T11:50:22.177Z,96.90
2023-05-06T11:54:09.188Z,97.20
2023-05-06T11:57:53.388Z,97.10
2023-05-06T12:01:35.426Z,97.10
2023-05-06T12:05:17.153Z,96.90
2023-05-06T12:08:59.040Z,96.90
2023-05-06T12:12:40.907Z,97.00
2023-05-06T12:16:24.197Z,97.20
2023-05-06T12:20:06.770Z,97.20
2023-05-06T12:23:52.945Z,97.20
2023-05-06T12:27:35.906Z,97.50
2023-05-06T12:31:21.131Z,97.30
2023-05-06T12:35:07.341Z,97.40
2023-05-06T12:39:16.282Z,97.20
2023-05-06T12:42:58.094Z,97.70
2023-05-06T12:46:52.583Z,97.20
2023-05-06T12:50:39.316Z,97.60
2023-05-06T12:54:30.849Z,97.30
2023-05-06T12:58:16.943Z,97.60
2023-05-06T13:01:59.869Z,97.40
2023-05-06T13:05:41.860Z,97.30
2023-05-06T13:09:26.482Z,97.40
2023-05-06T13:13:11.232Z,97.10
2023-05-06T13:16:54.048Z,97.40
2023-05-06T13:20:36.585Z,97.10
2023-05-06T13:24:18.371Z,96.90
2023-05-06T13:28:00.207Z,97.00
2023-05-06T13:31:41.909Z,97.10
2023-05-06T13:35:23.600Z,97.10
2023-05-06T13:39:05.359Z,97.30
2023-05-06T13:42:47.098Z,97.50
2023-05-06T13:46:28.905Z,97.50
2023-05-06T13:50:11.147Z,97.50
2023-05-06T13:53:53.069Z,97.60
2023-05-06T13:57:34.784Z,97.70
2023-05-06T14:01:16.627Z,97.80
2023-05-06T14:04:59.044Z,97.70
2023-05-06T14:08:41.226Z,97.60
2023-05-06T14:12:23.073Z,97.60
2023-05-06T14:16:05.127Z,97.50
2023-05-06T14:19:46.840Z,97.40
2023-05-06T14:23:28.604Z,97.40
2023-05-06T14:27:10.658Z,97.40
2023-05-06T14:30:53.153Z,97.30
2023-05-06T14:34:36.650Z,97.30
2023-05-06T14:38:18.954Z,97.20
2023-05-06T14:42:00.641Z,97.20
2023-05-06T14:45:42.390Z,97.20
2023-05-06T14:49:24.170Z,97.10
2023-05-06T14:53:05.872Z,97.10
2023-05-06T14:56:49.438Z,97.40
2023-05-06T15:00:31.245Z,97.10
2023-05-06T15:04:12.994Z,97.20
2023-05-06T15:07:54.713Z,97.30
2023-05-06T15:11:36.523Z,97.30
2023-05-06T15:15:18.658Z,97.30
2023-05-06T15:19:00.505Z,97.30
2023-05-06T15:22:43.632Z,97.30
2023-05-06T15:26:25.570Z,97.10
2023-05-06T15:30:07.872Z,97.00
2023-05-06T15:33:49.621Z,97.20
2023-05-06T15:37:33.384Z,96.80
2023-05-06T15:41:15.102Z,96.70
2023-05-06T15:44:57.975Z,97.10
2023-05-06T15:48:39.727Z,96.80
2023-05-06T15:52:22.704Z,96.80
2023-05-06T15:56:18.225Z,96.70
2023-05-06T16:00:00.616Z,96.50
2023-05-06T16:03:43.002Z,96.50
2023-05-06T16:07:24.924Z,96.50
2023-05-06T16:11:07.258Z,96.50
2023-05-06T16:14:49.004Z,96.50
2023-05-06T16:18:30.782Z,96.60
2023-05-06T16:22:12.509Z,96.50
2023-05-06T16:25:54.744Z,96.30
2023-05-06T16:29:36.574Z,96.20
2023-05-06T16:33:18.303Z,95.90
2023-05-06T16:37:00.648Z,95.90
2023-05-06T16:40:47.447Z,95.80
2023-05-06T16:44:29.604Z,95.70
2023-05-06T16:48:15.333Z,95.60
2023-05-06T16:51:57.886Z,95.50
2023-05-06T16:55:39.767Z,95.30
2023-05-06T16:59:22.555Z,95.20
2023-05-06T17:03:04.845Z,95.20
2023-05-06T17:06:46.713Z,95.10
2023-05-06T17:10:29.412Z,95.10
2023-05-06T17:14:14.122Z,95.10
2023-05-06T17:17:55.860Z,94.90
2023-05-06T17:21:37.904Z,95.10
2023-05-06T17:25:19.812Z,95.00
2023-05-06T17:29:01.639Z,94.50
2023-05-06T17:32:43.609Z,94.90
2023-05-06T17:36:25.549Z,94.80
2023-05-06T17:40:08.151Z,94.60
2023-05-06T17:43:50.019Z,94.60
2023-05-06T17:47:31.740Z,94.60
2023-05-06T17:51:13.456Z,94.50
2023-05-06T17:55:10.745Z,94.50
2023-05-06T17:59:01.256Z,94.50
2023-05-06T18:02:43.685Z,94.60
2023-05-06T18:06:26.993Z,94.50
2023-05-06T18:10:09.439Z,94.50
2023-05-06T18:13:51.193Z,94.50
2023-05-06T18:17:33.100Z,94.40
2023-05-06T18:21:17.923Z,94.30
2023-05-06T18:24:59.759Z,94.40
2023-05-06T18:28:41.457Z,94.40
2023-05-06T18:32:23.602Z,94.30
2023-05-06T18:36:05.654Z,94.50
2023-05-06T18:39:47.430Z,94.40
2023-05-06T18:43:30.817Z,94.40
2023-05-06T18:47:12.603Z,94.40
2023-05-06T18:50:54.345Z,94.30
2023-05-06T18:54:36.056Z,94.30
2023-05-06T18:58:18.522Z,94.30
2023-05-06T19:02:01.908Z,94.40
2023-05-06T19:05:44.390Z,94.40
2023-05-06T19:09:26.127Z,94.40
2023-05-06T19:13:09.208Z,94.40
2023-05-06T19:16:51.038Z,94.40
2023-05-06T19:20:33.041Z,94.50
2023-05-06T19:24:14.752Z,94.50
2023-05-06T19:27:56.728Z,94.50
2023-05-06T19:31:38.576Z,94.60
2023-05-06T19:35:20.552Z,94.50
2023-05-06T19:39:02.402Z,94.50
2023-05-06T19:42:44.725Z,94.50
2023-05-06T19:46:26.524Z,94.50
2023-05-06T19:50:09.092Z,94.50
2023-05-06T19:53:51.085Z,94.60
2023-05-06T19:57:33.704Z,94.60
2023-05-06T20:01:17.061Z,94.60
2023-05-06T20:05:00.303Z,94.70
2023-05-06T20:08:42.531Z,94.70
2023-05-06T20:12:26.494Z,94.70
2023-05-06T20:16:08.248Z,94.70
2023-05-06T20:19:50.198Z,94.70
2023-05-06T20:23:31.956Z,94.70
2023-05-06T20:27:13.745Z,94.70
2023-05-06T20:30:55.796Z,94.70
2023-05-06T20:34:37.677Z,94.70
2023-05-06T20:38:19.721Z,95.00
2023-05-06T20:42:01.705Z,94.70
2023-05-06T20:45:43.504Z,94.70
2023-05-06T20:49:25.204Z,94.70
2023-05-06T20:53:07.077Z,94.60
2023-05-06T20:56:48.827Z,94.50
2023-05-06T21:00:30.673Z,94.50
2023-05-06T21:04:12.366Z,94.50
2023-05-06T21:07:54.065Z,94.40
2023-05-06T21:11:36.213Z,94.20
2023-05-06T21:15:18.597Z,94.10
2023-05-06T21:19:00.764Z,93.90
2023-05-06T21:22:42.490Z,93.60
2023-05-06T21:26:24.244Z,93.50
2023-05-06T21:30:06.736Z,93.30
2023-05-06T21:33:56.105Z,93.20
2023-05-06T21:37:37.871Z,93.10
2023-05-06T21:41:19.764Z,93.00
2023-05-06T21:45:01.542Z,93.00
2023-05-06T21:48:43.231Z,93.00
2023-05-06T21:52:25.021Z,92.90
2023-05-06T21:56:06.768Z,93.00
2023-05-06T21:59:48.587Z,93.00
2023-05-06T22:03:30.617Z,93.00
2023-05-06T22:07:12.407Z,93.00
2023-05-06T22:10:54.174Z,93.00
2023-05-06T22:14:41.030Z,93.00
2023-05-06T22:18:23.597Z,93.30
2023-05-06T22:22:05.351Z,93.00
2023-05-06T22:25:47.148Z,93.10
2023-05-06T22:29:28.887Z,93.10
2023-05-06T22:33:10.766Z,93.20
2023-05-06T22:36:52.575Z,93.20
2023-05-06T22:40:34.425Z,93.30
2023-05-06T22:44:16.577Z,93.30
2023-05-06T22:47:58.359Z,93.30
2023-05-06T22:51:40.394Z,93.30
2023-05-06T22:55:22.291Z,93.30
2023-05-06T22:59:05.339Z,93.40
2023-05-06T23:02:47.397Z,93.50
2023-05-06T23:06:30.873Z,93.50
2023-05-06T23:10:12.778Z,93.60
2023-05-06T23:13:54.493Z,93.60
2023-05-06T23:17:36.433Z,93.60
2023-05-06T23:21:18.205Z,93.60
2023-05-06T23:24:59.900Z,93.60
2023-05-06T23:28:41.645Z,93.60
2023-05-06T23:32:23.319Z,93.70
2023-05-06T23:36:05.247Z,93.70
2023-05-06T23:39:47.632Z,93.70
2023-05-06T23:43:29.349Z,93.70
2023-05-06T23:47:11.245Z,93.80
2023-05-06T23:50:54.508Z,93.80
2023-05-06T23:54:36.268Z,93.80
2023-05-06T23:58:18.050Z,93.90
